createdAt,value
2023-05-17T00:00:15.517Z,3
2023-05-17T00:01:22.624Z,3
2023-05-17T00:02:29.727Z,3
2023-05-17T00:03:36.646Z,2
2023-05-17T00:04:43.871Z,3
2023-05-17T00:05:50.790Z,3
2023-05-17T00:06:57.847Z,3
2023-05-17T00:08:06.046Z,3
2023-05-17T00:09:13.194Z,2
2023-05-17T00:10:20.925Z,3
2023-05-17T00:11:27.922Z,3
2023-05-17T00:12:34.979Z,3
2023-05-17T00:13:42.102Z,3
2023-05-17T00:14:50.106Z,2
2023-05-17T00:15:57.041Z,3
2023-05-17T00:17:04.015Z,3
2023-05-17T00:18:11.029Z,3
2023-05-17T00:19:18.875Z,3
2023-05-17T00:20:26.415Z,3
2023-05-17T00:21:33.280Z,3
2023-05-17T00:22:40.483Z,3
2023-05-17T00:23:47.472Z,3
2023-05-17T00:24:54.531Z,3
2023-05-17T00:26:12.962Z,3
2023-05-17T00:27:20.044Z,3
2023-05-17T00:28:26.985Z,3
2023-05-17T00:29:33.972Z,3
2023-05-17T00:30:40.949Z,3
2023-05-17T00:31:50.670Z,2
2023-05-17T00:32:57.658Z,3
2023-05-17T00:34:04.626Z,3
2023-05-17T00:35:11.616Z,3
2023-05-17T00:36:18.688Z,3
2023-05-17T00:37:25.676Z,3
2023-05-17T00:38:35.265Z,3
2023-05-17T00:39:42.343Z,3
2023-05-17T00:40:49.849Z,3
2023-05-17T00:41:56.766Z,3
2023-05-17T00:43:03.912Z,3
2023-05-17T00:44:11.316Z,3
2023-05-17T00:45:18.496Z,3
2023-05-17T00:46:25.498Z,3
2023-05-17T00:47:32.448Z,3
2023-05-17T00:48:39.466Z,3
2023-05-17T00:49:46.593Z,3
2023-05-17T00:50:53.590Z,3
2023-05-17T00:52:00.652Z,3
2023-05-17T00:53:07.757Z,3
2023-05-17T00:54:14.669Z,3
2023-05-17T00:55:21.727Z,3
2023-05-17T00:56:28.755Z,3
2023-05-17T00:57:36.366Z,3
2023-05-17T00:58:43.508Z,3
2023-05-17T00:59:50.574Z,3
2023-05-17T01:00:57.581Z,3
2023-05-17T01:02:04.588Z,3
2023-05-17T01:03:11.752Z,3
2023-05-17T01:04:18.781Z,3
2023-05-17T01:05:25.638Z,3
2023-05-17T01:06:33.910Z,3
2023-05-17T01:07:40.950Z,3
2023-05-17T01:08:48.221Z,3
2023-05-17T01:09:55.183Z,3
2023-05-17T01:11:02.062Z,3
2023-05-17T01:12:19.214Z,3
2023-05-17T01:13:36.253Z,3
2023-05-17T01:14:51.160Z,3
2023-05-17T01:16:00.733Z,3
2023-05-17T01:17:13.075Z,3
2023-05-17T01:18:20.111Z,3
2023-05-17T01:19:27.064Z,3
2023-05-17T01:20:39.114Z,3
2023-05-17T01:21:48.855Z,3
2023-05-17T01:23:01.062Z,3
2023-05-17T01:24:13.105Z,3
2023-05-17T01:25:23.338Z,3
2023-05-17T01:26:35.357Z,3
2023-05-17T01:27:43.280Z,2
2023-05-17T01:28:50.237Z,3
2023-05-17T01:29:57.210Z,3
2023-05-17T01:31:04.122Z,3
2023-05-17T01:32:11.091Z,3
2023-05-17T01:33:18.226Z,4
2023-05-17T01:34:25.119Z,4
2023-05-17T01:35:32.060Z,4
2023-05-17T01:36:39.058Z,5
2023-05-17T01:37:49.139Z,4
2023-05-17T01:38:56.300Z,4
2023-05-17T01:40:03.234Z,5
2023-05-17T01:41:11.809Z,4
2023-05-17T01:42:19.307Z,4
2023-05-17T01:43:26.208Z,4
2023-05-17T01:44:42.175Z,4
2023-05-17T01:45:56.620Z,4
2023-05-17T01:47:06.449Z,4
2023-05-17T01:48:18.563Z,4
2023-05-17T01:49:30.606Z,3
2023-05-17T01:50:40.093Z,3
2023-05-17T01:51:46.981Z,3
2023-05-17T01:52:56.691Z,3
2023-05-17T01:54:03.687Z,3
2023-05-17T01:55:10.596Z,3
2023-05-17T01:56:25.196Z,3
2023-05-17T01:57:32.165Z,2
2023-05-17T01:58:39.219Z,2
2023-05-17T01:59:48.848Z,2
2023-05-17T02:00:55.819Z,2
2023-05-17T02:02:02.805Z,3
2023-05-17T02:03:09.720Z,2
2023-05-17T02:04:16.713Z,2
2023-05-17T02:05:23.814Z,2
2023-05-17T02:06:30.717Z,2
2023-05-17T02:07:37.700Z,2
2023-05-17T02:08:44.687Z,2
2023-05-17T02:09:51.805Z,2
2023-05-17T02:10:58.608Z,2
2023-05-17T02:12:05.531Z,2
2023-05-17T02:13:12.436Z,2
2023-05-17T02:14:20.933Z,2
2023-05-17T02:15:28.121Z,2
2023-05-17T02:16:35.066Z,2
2023-05-17T02:17:42.392Z,2
2023-05-17T02:18:49.412Z,2
2023-05-17T02:19:56.276Z,2
2023-05-17T02:21:04.064Z,2
2023-05-17T02:22:10.974Z,2
2023-05-17T02:23:17.997Z,2
2023-05-17T02:24:24.997Z,2
2023-05-17T02:25:34.930Z,1
2023-05-17T02:26:41.862Z,2
2023-05-17T02:27:48.898Z,2
2023-05-17T02:28:58.179Z,1
2023-05-17T02:30:05.291Z,1
2023-05-17T02:31:12.446Z,1
2023-05-17T02:32:19.494Z,2
2023-05-17T02:33:26.565Z,1
2023-05-17T02:34:33.498Z,2
2023-05-17T02:35:43.462Z,1
2023-05-17T02:36:50.549Z,1
2023-05-17T02:37:57.978Z,1
2023-05-17T02:39:04.964Z,1
2023-05-17T02:40:11.947Z,1
2023-05-17T02:41:21.960Z,1
2023-05-17T02:42:28.872Z,1
2023-05-17T02:43:38.393Z,1
2023-05-17T02:44:45.406Z,1
2023-05-17T02:45:55.335Z,1
2023-05-17T02:47:02.406Z,1
2023-05-17T02:48:09.485Z,2
2023-05-17T02:49:16.405Z,1
2023-05-17T02:50:23.312Z,1
2023-05-17T02:51:30.377Z,2
2023-05-17T02:52:37.423Z,1
2023-05-17T02:53:44.393Z,2
2023-05-17T02:54:51.364Z,2
2023-05-17T02:55:58.344Z,2
2023-05-17T02:57:05.469Z,2
2023-05-17T02:58:12.455Z,2
2023-05-17T02:59:22.460Z,2
2023-05-17T03:00:29.364Z,2
2023-05-17T03:01:37.998Z,2
2023-05-17T03:02:45.209Z,2
2023-05-17T03:03:52.316Z,2
2023-05-17T03:05:00.103Z,2
2023-05-17T03:06:07.206Z,1
2023-05-17T03:07:14.214Z,2
2023-05-17T03:08:21.191Z,2
2023-05-17T03:09:28.215Z,2
2023-05-17T03:10:35.200Z,2
2023-05-17T03:11:42.188Z,1
2023-05-17T03:12:49.362Z,1
2023-05-17T03:13:56.268Z,2
2023-05-17T03:15:03.309Z,2
2023-05-17T03:16:13.208Z,2
2023-05-17T03:17:23.183Z,2
2023-05-17T03:18:30.253Z,2
2023-05-17T03:19:37.233Z,1
2023-05-17T03:20:44.172Z,2
2023-05-17T03:21:51.226Z,2
2023-05-17T03:22:58.786Z,2
2023-05-17T03:24:05.774Z,2
2023-05-17T03:25:12.824Z,2
2023-05-17T03:26:19.855Z,1
2023-05-17T03:27:26.842Z,1
2023-05-17T03:28:36.714Z,2
2023-05-17T03:29:43.534Z,1
2023-05-17T03:30:50.516Z,2
2023-05-17T03:31:57.499Z,2
2023-05-17T03:33:04.654Z,2
2023-05-17T03:34:11.455Z,1
2023-05-17T03:35:18.320Z,2
2023-05-17T03:36:26.099Z,2
2023-05-17T03:37:35.746Z,1
2023-05-17T03:38:42.768Z,1
2023-05-17T03:39:52.564Z,1
2023-05-17T03:40:59.452Z,1
2023-05-17T03:42:06.386Z,2
2023-05-17T03:43:13.385Z,1
2023-05-17T03:44:20.436Z,1
2023-05-17T03:45:27.494Z,1
2023-05-17T03:46:37.074Z,1
2023-05-17T03:47:44.078Z,2
2023-05-17T03:48:51.001Z,1
2023-05-17T03:49:57.950Z,1
2023-05-17T03:51:04.876Z,2
2023-05-17T03:52:11.814Z,2
2023-05-17T03:53:19.036Z,2
2023-05-17T03:54:25.988Z,2
2023-05-17T03:55:35.593Z,2
2023-05-17T03:56:42.579Z,2
2023-05-17T03:57:49.677Z,2
2023-05-17T03:58:56.666Z,2
2023-05-17T04:00:06.469Z,2
2023-05-17T04:01:13.929Z,2
2023-05-17T04:02:21.021Z,2
2023-05-17T04:03:28.038Z,2
2023-05-17T04:04:35.054Z,2
2023-05-17T04:05:42.175Z,2
2023-05-17T04:06:49.273Z,2
2023-05-17T04:07:56.253Z,2
2023-05-17T04:09:03.206Z,2
2023-05-17T04:10:10.269Z,2
2023-05-17T04:11:17.401Z,2
2023-05-17T04:12:24.371Z,2
2023-05-17T04:13:31.273Z,2
2023-05-17T04:14:38.281Z,2
2023-05-17T04:15:45.368Z,3
2023-05-17T04:16:52.190Z,2
2023-05-17T04:17:59.187Z,2
2023-05-17T04:19:06.075Z,2
2023-05-17T04:20:13.042Z,2
2023-05-17T04:21:20.024Z,2
2023-05-17T04:22:26.981Z,2
2023-05-17T04:23:33.876Z,2
2023-05-17T04:24:40.784Z,2
2023-05-17T04:25:47.632Z,2
2023-05-17T04:26:54.585Z,2
2023-05-17T04:28:01.492Z,2
2023-05-17T04:29:09.117Z,2
2023-05-17T04:30:16.071Z,2
2023-05-17T04:31:23.538Z,2
2023-05-17T04:32:30.427Z,2
2023-05-17T04:33:37.398Z,2
2023-05-17T04:34:47.573Z,2
2023-05-17T04:35:54.603Z,2
2023-05-17T04:37:01.702Z,2
2023-05-17T04:38:09.127Z,2
2023-05-17T04:39:16.099Z,2
2023-05-17T04:40:23.018Z,2
2023-05-17T04:41:29.956Z,3
2023-05-17T04:42:36.877Z,2
2023-05-17T04:43:44.368Z,2
2023-05-17T04:44:51.466Z,2
2023-05-17T04:45:58.610Z,2
2023-05-17T04:47:08.577Z,2
2023-05-17T04:48:18.189Z,2
2023-05-17T04:49:25.063Z,2
2023-05-17T04:50:32.743Z,2
2023-05-17T04:51:39.812Z,2
2023-05-17T04:52:46.977Z,2
2023-05-17T04:53:54.170Z,3
2023-05-17T04:55:01.625Z,2
2023-05-17T04:56:08.973Z,2
2023-05-17T04:57:15.885Z,2
2023-05-17T04:58:23.249Z,2
2023-05-17T04:59:30.237Z,2
2023-05-17T05:00:39.885Z,2
2023-05-17T05:01:46.905Z,2
2023-05-17T05:02:54.038Z,2
2023-05-17T05:04:01.660Z,2
2023-05-17T05:05:09.193Z,2
2023-05-17T05:06:16.194Z,2
2023-05-17T05:07:23.787Z,2
2023-05-17T05:08:31.628Z,2
2023-05-17T05:09:38.566Z,1
2023-05-17T05:10:45.735Z,2
2023-05-17T05:11:52.717Z,2
2023-05-17T05:12:59.663Z,2
2023-05-17T05:14:06.674Z,2
2023-05-17T05:15:13.546Z,1
2023-05-17T05:16:23.225Z,2
2023-05-17T05:17:30.290Z,2
2023-05-17T05:18:40.196Z,2
2023-05-17T05:19:46.873Z,2
2023-05-17T05:20:53.866Z,1
2023-05-17T05:22:00.900Z,2
2023-05-17T05:23:08.087Z,2
2023-05-17T05:24:15.065Z,2
2023-05-17T05:25:21.987Z,2
2023-05-17T05:26:29.182Z,2
2023-05-17T05:27:36.207Z,2
2023-05-17T05:28:43.408Z,2
2023-05-17T05:29:59.437Z,2
2023-05-17T05:31:06.597Z,2
2023-05-17T05:32:13.709Z,2
2023-05-17T05:33:20.776Z,1
2023-05-17T05:34:28.752Z,2
2023-05-17T05:35:35.325Z,1
2023-05-17T05:36:42.664Z,2
2023-05-17T05:37:49.664Z,2
2023-05-17T05:38:56.710Z,2
2023-05-17T05:40:03.801Z,2
2023-05-17T05:41:11.183Z,2
2023-05-17T05:42:18.253Z,2
2023-05-17T05:43:25.228Z,2
2023-05-17T05:44:32.300Z,2
2023-05-17T05:45:39.237Z,2
2023-05-17T05:46:49.263Z,2
2023-05-17T05:47:56.311Z,3
2023-05-17T05:49:03.651Z,4
2023-05-17T05:50:10.675Z,3
2023-05-17T05:51:27.113Z,2
2023-05-17T05:52:34.140Z,3
2023-05-17T05:53:41.196Z,3
2023-05-17T05:54:49.755Z,3
2023-05-17T05:55:56.732Z,6
2023-05-17T05:57:03.729Z,5
2023-05-17T05:58:10.683Z,3
2023-05-17T05:59:17.998Z,3
2023-05-17T06:00:24.896Z,3
2023-05-17T06:01:31.878Z,3
2023-05-17T06:02:38.795Z,2
2023-05-17T06:03:45.747Z,2
2023-05-17T06:04:52.720Z,2
2023-05-17T06:06:03.230Z,3
2023-05-17T06:07:10.239Z,3
2023-05-17T06:08:18.012Z,3
2023-05-17T06:09:24.967Z,3
2023-05-17T06:10:32.178Z,2
2023-05-17T06:11:39.554Z,3
2023-05-17T06:12:46.584Z,3
2023-05-17T06:13:53.695Z,3
2023-05-17T06:15:00.738Z,3
2023-05-17T06:16:08.022Z,3
2023-05-17T06:17:15.379Z,3
2023-05-17T06:18:22.551Z,2
2023-05-17T06:20:01.285Z,2
2023-05-17T06:21:08.696Z,2
2023-05-17T06:22:18.474Z,3
2023-05-17T06:23:28.714Z,2
2023-05-17T06:24:42.243Z,3
2023-05-17T06:25:49.622Z,2
2023-05-17T06:27:00.306Z,2
2023-05-17T06:28:08.218Z,2
2023-05-17T06:29:15.116Z,2
2023-05-17T06:30:22.086Z,3
2023-05-17T06:31:31.693Z,2
2023-05-17T06:32:42.378Z,3
2023-05-17T06:33:50.164Z,3
2023-05-17T06:34:59.982Z,2
2023-05-17T06:36:08.587Z,2
2023-05-17T06:37:28.482Z,4
2023-05-17T06:38:35.987Z,3
2023-05-17T06:39:47.831Z,3
2023-05-17T06:40:50.184Z,2
2023-05-17T06:41:57.134Z,2
2023-05-17T06:43:04.278Z,3
2023-05-17T06:44:11.249Z,3
2023-05-17T06:45:17.459Z,3
2023-05-17T06:46:22.539Z,3
2023-05-17T06:47:27.654Z,3
2023-05-17T06:48:32.877Z,3
2023-05-17T06:49:38.329Z,3
2023-05-17T06:50:45.513Z,3
2023-05-17T06:51:53.951Z,3
2023-05-17T06:52:59.076Z,3
2023-05-17T06:54:04.373Z,3
2023-05-17T06:55:09.517Z,3
2023-05-17T06:56:15.296Z,4
2023-05-17T06:57:23.169Z,4
2023-05-17T06:58:28.299Z,4
2023-05-17T06:59:34.672Z,4
2023-05-17T07:00:39.730Z,4
2023-05-17T07:01:45.666Z,4
2023-05-17T07:02:51.098Z,4
2023-05-17T07:03:57.045Z,4
2023-05-17T07:05:02.326Z,4
2023-05-17T07:06:07.420Z,4
2023-05-17T07:07:15.416Z,4
2023-05-17T07:08:21.058Z,4
2023-05-17T07:09:25.995Z,4
2023-05-17T07:10:33.651Z,4
2023-05-17T07:11:41.832Z,4
2023-05-17T07:12:50.028Z,4
2023-05-17T07:13:55.694Z,4
2023-05-17T07:15:00.867Z,4
2023-05-17T07:16:12.473Z,4
2023-05-17T07:17:20.990Z,4
2023-05-17T07:18:27.879Z,4
2023-05-17T07:19:34.066Z,4
2023-05-17T07:20:42.492Z,4
2023-05-17T07:21:48.922Z,4
2023-05-17T07:22:54.394Z,4
2023-05-17T07:24:01.764Z,4
2023-05-17T07:25:09.885Z,4
2023-05-17T07:26:18.175Z,4
2023-05-17T07:27:29.646Z,4
2023-05-17T07:28:40.313Z,4
2023-05-17T07:29:48.000Z,4
2023-05-17T07:30:57.728Z,4
2023-05-17T07:32:04.161Z,4
2023-05-17T07:33:13.839Z,4
2023-05-17T07:34:20.498Z,4
2023-05-17T07:35:27.610Z,4
2023-05-17T07:36:33.469Z,4
2023-05-17T07:37:39.295Z,4
2023-05-17T07:38:45.850Z,4
2023-05-17T07:40:19.847Z,4
2023-05-17T07:41:25.307Z,4
2023-05-17T07:42:30.319Z,4
2023-05-17T07:43:35.599Z,4
2023-05-17T07:44:43.908Z,4
2023-05-17T07:46:01.697Z,4
2023-05-17T07:47:07.249Z,4
2023-05-17T07:48:14.323Z,4
2023-05-17T07:49:20.186Z,4
2023-05-17T07:50:27.816Z,4
2023-05-17T07:51:36.515Z,3
2023-05-17T07:52:47.169Z,2
2023-05-17T07:53:55.356Z,3
2023-05-17T07:55:06.019Z,3
2023-05-17T07:56:14.087Z,2
2023-05-17T07:57:25.795Z,3
2023-05-17T07:58:34.250Z,3
2023-05-17T07:59:42.562Z,2
2023-05-17T08:00:50.760Z,2
2023-05-17T08:02:00.906Z,2
2023-05-17T08:03:09.214Z,2
2023-05-17T08:04:16.900Z,2
2023-05-17T08:05:24.739Z,2
2023-05-17T08:06:32.436Z,2
2023-05-17T08:07:39.599Z,2
2023-05-17T08:08:48.603Z,2
2023-05-17T08:09:59.220Z,2
2023-05-17T08:11:16.370Z,3
2023-05-17T08:12:27.955Z,2
2023-05-17T08:13:35.526Z,3
2023-05-17T08:15:11.516Z,3
2023-05-17T08:16:18.828Z,3
2023-05-17T08:17:26.032Z,3
2023-05-17T08:18:34.413Z,3
2023-05-17T08:19:41.708Z,2
2023-05-17T08:20:49.210Z,3
2023-05-17T08:22:08.920Z,3
2023-05-17T08:23:18.427Z,3
2023-05-17T08:24:27.793Z,3
2023-05-17T08:25:35.023Z,2
2023-05-17T08:26:42.296Z,2
2023-05-17T08:27:49.521Z,2
2023-05-17T08:28:57.382Z,3
2023-05-17T08:30:14.774Z,2
2023-05-17T08:31:17.847Z,2
2023-05-17T08:32:25.990Z,2
2023-05-17T08:33:34.131Z,2
2023-05-17T08:34:42.790Z,2
2023-05-17T08:35:49.995Z,3
2023-05-17T08:36:57.462Z,3
2023-05-17T08:38:09.290Z,3
2023-05-17T08:39:28.087Z,2
2023-05-17T08:40:35.187Z,3
2023-05-17T08:41:42.475Z,3
2023-05-17T08:42:52.869Z,3
2023-05-17T08:44:00.844Z,3
2023-05-17T08:45:08.151Z,3
2023-05-17T08:46:15.413Z,3
2023-05-17T08:47:22.497Z,3
2023-05-17T08:48:30.850Z,3
2023-05-17T08:49:38.391Z,4
2023-05-17T08:50:45.677Z,3
2023-05-17T08:54:40.045Z,0
2023-05-17T08:55:47.261Z,2
2023-05-17T08:56:54.546Z,2
2023-05-17T08:58:01.866Z,2
2023-05-17T08:59:08.912Z,2
2023-05-17T09:00:16.064Z,2
2023-05-17T09:01:25.477Z,2
2023-05-17T09:02:30.750Z,2
2023-05-17T09:03:38.100Z,3
2023-05-17T09:04:46.045Z,3
2023-05-17T09:05:53.102Z,3
2023-05-17T09:07:00.040Z,3
2023-05-17T09:08:07.244Z,3
2023-05-17T09:09:15.577Z,1
2023-05-17T09:10:23.787Z,2
2023-05-17T09:11:35.917Z,2
2023-05-17T09:12:42.905Z,11
2023-05-17T09:14:01.901Z,4
2023-05-17T09:15:08.668Z,2
2023-05-17T09:16:15.502Z,13
2023-05-17T09:17:23.483Z,9
2023-05-17T09:18:33.451Z,2
2023-05-17T09:19:40.380Z,16
2023-05-17T09:20:47.085Z,13
2023-05-17T09:21:57.673Z,4
2023-05-17T09:23:04.480Z,2
2023-05-17T09:24:11.958Z,2
2023-05-17T09:25:18.919Z,4
2023-05-17T09:26:25.788Z,2
2023-05-17T09:27:44.223Z,3
2023-05-17T09:28:56.429Z,4
2023-05-17T09:30:12.715Z,3
2023-05-17T09:31:25.807Z,6
2023-05-17T09:32:36.462Z,10
2023-05-17T09:33:46.302Z,5
2023-05-17T09:34:53.586Z,3
2023-05-17T09:36:00.937Z,2
2023-05-17T09:37:11.358Z,3
2023-05-17T09:38:20.024Z,3
2023-05-17T09:39:26.855Z,3
2023-05-17T09:40:33.595Z,3
2023-05-17T09:41:44.382Z,5
2023-05-17T09:42:51.191Z,3
2023-05-17T09:43:58.101Z,3
2023-05-17T09:45:04.954Z,3
2023-05-17T09:46:11.975Z,3
2023-05-17T09:47:19.140Z,3
2023-05-17T09:49:04.297Z,3
2023-05-17T09:50:11.695Z,4
2023-05-17T09:51:18.978Z,4
2023-05-17T09:52:36.228Z,3
2023-05-17T09:53:44.112Z,4
2023-05-17T09:54:50.920Z,4
2023-05-17T09:55:57.872Z,3
2023-05-17T09:57:04.776Z,3
2023-05-17T09:58:11.878Z,3
2023-05-17T09:59:19.049Z,3
2023-05-17T10:00:27.081Z,3
2023-05-17T10:01:34.215Z,3
2023-05-17T10:03:48.514Z,5
2023-05-17T10:04:55.448Z,3
2023-05-17T10:06:02.270Z,2
2023-05-17T10:07:09.344Z,3
2023-05-17T10:08:16.523Z,3
2023-05-17T10:09:23.691Z,2
2023-05-17T10:10:30.849Z,3
2023-05-17T10:11:37.843Z,3
2023-05-17T10:12:45.126Z,2
2023-05-17T10:13:52.313Z,3
2023-05-17T10:15:05.393Z,3
2023-05-17T10:16:12.722Z,3
2023-05-17T10:17:19.851Z,3
2023-05-17T10:18:27.300Z,3
2023-05-17T10:19:34.887Z,2
2023-05-17T10:20:42.259Z,2
2023-05-17T10:21:49.366Z,3
2023-05-17T10:22:58.483Z,3
2023-05-17T10:24:03.732Z,3
2023-05-17T10:25:10.913Z,3
2023-05-17T10:26:18.078Z,3
2023-05-17T10:27:27.800Z,3
2023-05-17T10:28:34.921Z,3
2023-05-17T10:29:42.023Z,3
2023-05-17T10:30:49.153Z,3
2023-05-17T10:31:56.499Z,3
2023-05-17T10:33:03.783Z,3
2023-05-17T10:34:10.884Z,2
2023-05-17T10:35:18.027Z,2
2023-05-17T10:36:25.301Z,3
2023-05-17T10:37:32.430Z,2
2023-05-17T10:38:42.738Z,3
2023-05-17T10:39:46.548Z,3
2023-05-17T10:40:53.679Z,3
2023-05-17T10:42:13.254Z,3
2023-05-17T10:43:07.918Z,3
2023-05-17T10:44:15.055Z,3
2023-05-17T10:45:22.090Z,2
2023-05-17T10:46:29.090Z,2
2023-05-17T10:47:36.189Z,2
2023-05-17T10:48:43.078Z,2
2023-05-17T10:49:55.264Z,2
2023-05-17T10:51:02.328Z,3
2023-05-17T10:52:12.381Z,2
2023-05-17T10:53:19.586Z,2
2023-05-17T10:54:26.731Z,3
2023-05-17T10:55:39.005Z,3
2023-05-17T10:56:46.051Z,3
2023-05-17T10:57:56.272Z,3
2023-05-17T10:59:13.183Z,3
2023-05-17T11:00:25.334Z,3
2023-05-17T11:01:36.509Z,3
2023-05-17T11:02:54.437Z,3
2023-05-17T11:04:11.889Z,3
2023-05-17T11:05:25.042Z,3
2023-05-17T11:06:32.481Z,3
2023-05-17T11:07:39.817Z,3
2023-05-17T11:08:47.035Z,3
2023-05-17T11:10:04.707Z,3
2023-05-17T11:11:14.608Z,3
2023-05-17T11:12:22.079Z,2
2023-05-17T11:13:32.312Z,3
2023-05-17T11:14:45.039Z,3
2023-05-17T11:15:52.463Z,3
2023-05-17T11:17:07.450Z,3
2023-05-17T11:18:29.388Z,2
2023-05-17T11:19:24.988Z,2
2023-05-17T11:20:32.629Z,2
2023-05-17T11:21:39.400Z,3
2023-05-17T11:22:49.356Z,3
2023-05-17T11:24:04.746Z,2
2023-05-17T11:25:13.786Z,3
2023-05-17T11:26:22.478Z,3
2023-05-17T11:27:32.237Z,3
2023-05-17T11:28:39.311Z,4
2023-05-17T11:29:46.413Z,4
2023-05-17T11:30:53.693Z,2
2023-05-17T11:32:00.754Z,10
2023-05-17T11:33:20.836Z,3
2023-05-17T11:34:17.833Z,3
2023-05-17T11:35:24.790Z,3
2023-05-17T11:36:37.003Z,3
2023-05-17T11:37:51.992Z,3
2023-05-17T11:40:13.986Z,24
2023-05-17T11:42:27.876Z,46
2023-05-17T11:43:34.877Z,72
2023-05-17T11:44:41.829Z,64
2023-05-17T11:45:50.701Z,33
2023-05-17T11:46:55.776Z,21
2023-05-17T11:48:05.693Z,12
2023-05-17T11:49:17.809Z,11
2023-05-17T11:50:20.019Z,4
2023-05-17T11:51:27.051Z,3
2023-05-17T11:52:34.252Z,3
2023-05-17T11:53:41.304Z,4
2023-05-17T11:54:48.505Z,5
2023-05-17T11:55:55.797Z,5
2023-05-17T11:57:03.008Z,4
2023-05-17T11:58:10.638Z,3
2023-05-17T11:59:17.745Z,3
2023-05-17T12:00:27.857Z,3
2023-05-17T12:01:37.599Z,4
2023-05-17T12:02:50.458Z,3
2023-05-17T12:03:57.265Z,4
2023-05-17T12:05:04.175Z,3
2023-05-17T12:06:11.283Z,3
2023-05-17T12:07:18.878Z,3
2023-05-17T12:08:25.960Z,3
2023-05-17T12:09:33.571Z,3
2023-05-17T12:10:41.184Z,3
2023-05-17T12:11:53.996Z,3
2023-05-17T12:13:01.689Z,4
2023-05-17T12:14:09.827Z,4
2023-05-17T12:15:20.916Z,3
2023-05-17T12:16:28.879Z,4
2023-05-17T12:17:36.775Z,3
2023-05-17T12:18:45.668Z,3
2023-05-17T12:19:53.502Z,4
2023-05-17T12:21:02.539Z,4
2023-05-17T12:22:10.880Z,4
2023-05-17T12:23:19.080Z,3
2023-05-17T12:24:29.756Z,16
2023-05-17T12:25:42.735Z,7
2023-05-17T12:26:50.569Z,3
2023-05-17T12:27:58.539Z,3
2023-05-17T12:29:17.425Z,5
2023-05-17T12:30:25.699Z,4
2023-05-17T12:31:34.071Z,5
2023-05-17T12:32:42.256Z,4
2023-05-17T12:33:50.358Z,9
2023-05-17T12:34:58.401Z,5
2023-05-17T12:36:06.454Z,7
2023-05-17T12:37:14.414Z,10
2023-05-17T12:38:22.392Z,10
2023-05-17T12:39:30.539Z,8
2023-05-17T12:40:38.799Z,6
2023-05-17T12:41:46.883Z,6
2023-05-17T12:42:57.564Z,4
2023-05-17T12:44:14.328Z,3
2023-05-17T12:45:14.534Z,3
2023-05-17T12:46:23.176Z,3
2023-05-17T12:47:31.157Z,4
2023-05-17T12:48:40.213Z,5
2023-05-17T12:49:48.134Z,5
2023-05-17T12:50:59.677Z,5
2023-05-17T12:52:13.544Z,3
2023-05-17T12:53:24.760Z,3
2023-05-17T12:54:33.012Z,3
2023-05-17T12:55:56.985Z,3
2023-05-17T12:57:04.768Z,3
2023-05-17T12:58:15.426Z,3
2023-05-17T12:59:23.304Z,3
2023-05-17T13:00:31.458Z,3
2023-05-17T13:01:39.094Z,3
2023-05-17T13:02:50.114Z,4
2023-05-17T13:03:58.489Z,3
2023-05-17T13:05:06.525Z,4
2023-05-17T13:06:19.685Z,4
2023-05-17T13:07:27.197Z,4
2023-05-17T13:08:35.125Z,4
2023-05-17T13:09:43.270Z,3
2023-05-17T13:10:51.346Z,4
2023-05-17T13:11:59.227Z,4
2023-05-17T13:13:09.771Z,4
2023-05-17T13:14:23.163Z,3
2023-05-17T13:15:41.235Z,3
2023-05-17T13:16:49.152Z,4
2023-05-17T13:17:56.989Z,4
2023-05-17T13:19:04.938Z,4
2023-05-17T13:20:15.451Z,4
2023-05-17T13:21:23.288Z,4
2023-05-17T13:22:31.093Z,4
2023-05-17T13:23:38.906Z,4
2023-05-17T13:24:49.816Z,5
2023-05-17T13:25:57.587Z,4
2023-05-17T13:27:05.179Z,5
2023-05-17T13:28:14.066Z,6
2023-05-17T13:29:31.846Z,5
2023-05-17T13:30:28.782Z,4
2023-05-17T13:31:35.635Z,4
2023-05-17T13:32:43.348Z,4
2023-05-17T13:33:50.623Z,4
2023-05-17T13:34:58.084Z,5
2023-05-17T13:36:05.287Z,6
2023-05-17T13:37:12.858Z,5
2023-05-17T13:38:19.060Z,5
2023-05-17T13:39:26.047Z,4
2023-05-17T13:40:32.717Z,4
2023-05-17T13:41:40.256Z,5
2023-05-17T13:42:49.052Z,5
2023-05-17T13:43:56.735Z,4
2023-05-17T13:45:04.760Z,4
2023-05-17T13:46:13.300Z,4
2023-05-17T13:47:21.207Z,6
2023-05-17T13:48:29.101Z,5
2023-05-17T13:49:36.717Z,5
2023-05-17T13:50:43.557Z,5
2023-05-17T13:51:50.471Z,4
2023-05-17T13:52:57.425Z,4
2023-05-17T13:54:05.439Z,3
2023-05-17T13:55:12.663Z,4
2023-05-17T13:56:20.420Z,4
2023-05-17T13:57:27.937Z,4
2023-05-17T13:58:34.882Z,4
2023-05-17T13:59:43.072Z,4
2023-05-17T14:00:49.491Z,3
2023-05-17T14:01:57.193Z,4
2023-05-17T14:03:04.932Z,4
2023-05-17T14:04:13.075Z,4
2023-05-17T14:05:21.275Z,4
2023-05-17T14:06:29.480Z,4
2023-05-17T14:07:37.205Z,4
2023-05-17T14:08:47.899Z,4
2023-05-17T14:09:55.605Z,4
2023-05-17T14:11:03.536Z,5
2023-05-17T14:12:11.573Z,6
2023-05-17T14:13:19.463Z,7
2023-05-17T14:14:27.517Z,7
2023-05-17T14:15:35.493Z,7
2023-05-17T14:16:43.299Z,11
2023-05-17T14:17:51.528Z,9
2023-05-17T14:19:01.048Z,7
2023-05-17T14:20:07.977Z,8
2023-05-17T14:21:16.225Z,6
2023-05-17T14:22:24.611Z,5
2023-05-17T14:23:33.274Z,6
2023-05-17T14:24:41.128Z,6
2023-05-17T14:25:49.283Z,6
2023-05-17T14:26:57.298Z,6
2023-05-17T14:28:05.249Z,6
2023-05-17T14:29:13.501Z,5
2023-05-17T14:30:21.733Z,4
2023-05-17T14:31:30.012Z,5
2023-05-17T14:32:38.038Z,5
2023-05-17T14:33:46.828Z,5
2023-05-17T14:34:54.569Z,5
2023-05-17T14:36:02.364Z,5
2023-05-17T14:37:10.214Z,5
2023-05-17T14:38:18.109Z,5
2023-05-17T14:39:26.444Z,5
2023-05-17T14:40:34.558Z,5
2023-05-17T14:41:44.839Z,5
2023-05-17T14:42:50.626Z,5
2023-05-17T14:43:58.514Z,5
2023-05-17T14:45:06.252Z,4
2023-05-17T14:46:14.093Z,4
2023-05-17T14:47:21.954Z,5
2023-05-17T14:48:30.085Z,4
2023-05-17T14:49:38.113Z,5
2023-05-17T14:50:46.131Z,6
2023-05-17T14:51:54.013Z,7
2023-05-17T14:53:01.805Z,9
2023-05-17T14:54:10.691Z,7
2023-05-17T14:55:17.560Z,7
2023-05-17T14:56:25.629Z,7
2023-05-17T14:57:33.627Z,8
2023-05-17T14:58:42.257Z,7
2023-05-17T14:59:50.016Z,9
2023-05-17T15:01:04.701Z,8
2023-05-17T15:02:05.763Z,9
2023-05-17T15:03:34.595Z,8
2023-05-17T15:04:42.577Z,9
2023-05-17T15:05:50.367Z,7
2023-05-17T15:06:58.345Z,7
2023-05-17T15:08:06.084Z,8
2023-05-17T15:09:13.900Z,6
2023-05-17T15:10:21.790Z,7
2023-05-17T15:11:30.952Z,7
2023-05-17T15:12:39.954Z,8
2023-05-17T15:13:47.789Z,6
2023-05-17T15:14:55.492Z,7
2023-05-17T15:16:03.558Z,8
2023-05-17T15:17:26.874Z,7
2023-05-17T15:18:34.856Z,7
2023-05-17T15:19:43.446Z,6
2023-05-17T15:20:51.165Z,7
2023-05-17T15:21:59.130Z,7
2023-05-17T15:23:06.916Z,7
2023-05-17T15:24:16.501Z,6
2023-05-17T15:25:22.913Z,6
2023-05-17T15:26:30.674Z,6
2023-05-17T15:27:38.731Z,6
2023-05-17T15:28:46.788Z,6
2023-05-17T15:29:54.680Z,7
2023-05-17T15:31:02.043Z,7
2023-05-17T15:32:15.069Z,8
2023-05-17T15:33:22.917Z,7
2023-05-17T15:34:30.256Z,6
2023-05-17T15:35:37.876Z,5
2023-05-17T15:36:45.796Z,6
2023-05-17T15:37:56.223Z,6
2023-05-17T15:39:05.098Z,6
2023-05-17T15:40:12.998Z,9
2023-05-17T15:41:20.954Z,8
2023-05-17T15:42:28.908Z,8
2023-05-17T15:43:36.721Z,8
2023-05-17T15:44:44.583Z,9
2023-05-17T15:45:52.701Z,8
2023-05-17T15:47:03.036Z,8
2023-05-17T15:48:08.827Z,8
2023-05-17T15:49:16.649Z,7
2023-05-17T15:50:24.531Z,7
2023-05-17T15:51:32.555Z,8
2023-05-17T15:52:40.229Z,7
2023-05-17T15:53:48.373Z,8
2023-05-17T15:54:56.112Z,8
2023-05-17T15:56:04.286Z,7
2023-05-17T15:57:12.338Z,8
2023-05-17T15:58:20.162Z,10
2023-05-17T15:59:28.289Z,8
2023-05-17T16:00:36.369Z,8
2023-05-17T16:01:44.433Z,9
2023-05-17T16:02:52.428Z,7
2023-05-17T16:04:00.715Z,8
2023-05-17T16:05:08.804Z,10
2023-05-17T16:06:17.142Z,11
2023-05-17T16:07:26.170Z,10
2023-05-17T16:08:34.511Z,9
2023-05-17T16:09:42.371Z,9
2023-05-17T16:10:50.235Z,9
2023-05-17T16:11:58.168Z,9
2023-05-17T16:13:06.180Z,9
2023-05-17T16:14:14.226Z,8
2023-05-17T16:15:22.190Z,9
2023-05-17T16:16:29.962Z,9
2023-05-17T16:17:38.111Z,9
2023-05-17T16:18:46.036Z,9
2023-05-17T16:19:53.850Z,9
2023-05-17T16:21:01.741Z,8
2023-05-17T16:22:09.809Z,8
2023-05-17T16:23:17.701Z,9
2023-05-17T16:24:25.640Z,9
2023-05-17T16:25:33.548Z,9
2023-05-17T16:26:41.599Z,10
2023-05-17T16:27:49.257Z,9
2023-05-17T16:28:57.533Z,9
2023-05-17T16:30:05.525Z,8
2023-05-17T16:31:13.608Z,8
2023-05-17T16:32:21.379Z,7
2023-05-17T16:33:31.059Z,7
2023-05-17T16:34:38.630Z,8
2023-05-17T16:35:46.775Z,8
2023-05-17T16:36:54.571Z,8
2023-05-17T16:38:02.651Z,7
2023-05-17T16:39:10.511Z,7
2023-05-17T16:40:18.535Z,7
2023-05-17T16:41:26.848Z,7
2023-05-17T16:42:34.646Z,8
2023-05-17T16:43:42.776Z,9
2023-05-17T16:44:52.049Z,7
2023-05-17T16:45:59.378Z,7
2023-05-17T16:47:10.174Z,6
2023-05-17T16:48:17.024Z,7
2023-05-17T16:49:24.413Z,7
2023-05-17T16:50:31.517Z,7
2023-05-17T16:51:44.908Z,7
2023-05-17T16:52:58.239Z,7
2023-05-17T16:54:05.048Z,8
2023-05-17T16:55:13.022Z,8